createdAt,value
2022-11-22T00:01:28.617Z,2.01
2022-11-22T00:06:27.309Z,2.13
2022-11-22T00:11:26.032Z,1.95
2022-11-22T00:16:24.797Z,1.96
2022-11-22T00:21:23.528Z,1.94
2022-11-22T00:26:22.275Z,1.87
2022-11-22T00:31:21.070Z,2.01
2022-11-22T00:36:19.860Z,2.01
2022-11-22T00:41:18.687Z,1.72
2022-11-22T00:46:17.525Z,1.72
2022-11-22T00:51:16.273Z,1.74
2022-11-22T00:56:14.977Z,1.66
2022-11-22T01:01:13.785Z,1.92
2022-11-22T01:06:12.561Z,1.90
2022-11-22T01:11:11.949Z,1.90
2022-11-22T01:16:11.882Z,1.88
2022-11-22T01:21:10.687Z,2.07
2022-11-22T01:26:09.863Z,2.12
2022-11-22T01:31:09.430Z,2.19
2022-11-22T01:36:08.173Z,2.04
2022-11-22T01:41:06.890Z,2.22
2022-11-22T01:46:18.958Z,2.23
2022-11-22T01:51:24.845Z,2.41
2022-11-22T01:56:24.570Z,2.38
2022-11-22T02:01:23.361Z,2.19
2022-11-22T02:06:25.805Z,2.10
2022-11-22T02:11:28.400Z,2.05
2022-11-22T02:16:30.010Z,2.05
2022-11-22T02:21:29.312Z,2.00
2022-11-22T02:26:29.758Z,2.17
2022-11-22T02:31:46.720Z,2.00
2022-11-22T02:36:53.010Z,2.01
2022-11-22T02:41:52.198Z,2.05
2022-11-22T02:46:54.895Z,2.30
2022-11-22T02:51:53.837Z,2.13
2022-11-22T02:56:52.583Z,2.37
2022-11-22T03:01:51.438Z,2.14
2022-11-22T03:06:59.001Z,2.30
2022-11-22T03:11:58.307Z,2.18
2022-11-22T03:16:57.136Z,2.23
2022-11-22T03:21:55.948Z,2.22
2022-11-22T03:26:54.741Z,1.98
2022-11-22T03:31:53.649Z,1.90
2022-11-22T03:36:52.438Z,1.82
2022-11-22T03:41:51.188Z,1.83
2022-11-22T03:46:50.079Z,2.03
2022-11-22T03:51:48.889Z,2.14
2022-11-22T03:56:47.693Z,2.43
2022-11-22T04:01:46.529Z,2.31
2022-11-22T04:06:45.331Z,2.36
2022-11-22T04:11:44.089Z,2.53
2022-11-22T04:16:42.911Z,2.51
2022-11-22T04:21:41.600Z,2.30
2022-11-22T04:26:40.341Z,2.33
2022-11-22T04:31:57.524Z,2.06
2022-11-22T04:36:56.451Z,2.15
2022-11-22T04:42:15.368Z,2.58
2022-11-22T04:47:46.147Z,2.45
2022-11-22T04:52:54.955Z,2.78
2022-11-22T04:57:59.236Z,2.55
2022-11-22T05:02:59.354Z,2.56
2022-11-22T05:07:59.110Z,2.77
2022-11-22T05:12:57.934Z,2.79
2022-11-22T05:17:56.700Z,2.74
2022-11-22T05:23:13.685Z,2.58
2022-11-22T05:28:12.400Z,2.78
2022-11-22T05:33:11.095Z,6.90
2022-11-22T05:38:09.823Z,9.12
2022-11-22T05:43:08.616Z,9.02
2022-11-22T05:48:07.362Z,9.30
2022-11-22T05:53:06.098Z,8.59
2022-11-22T05:58:04.832Z,8.60
2022-11-22T06:03:04.319Z,6.03
2022-11-22T06:08:03.215Z,4.51
2022-11-22T06:13:01.977Z,3.63
2022-11-22T06:18:00.671Z,3.36
2022-11-22T06:22:59.558Z,3.43
2022-11-22T06:27:59.622Z,3.09
2022-11-22T06:32:58.741Z,3.40
2022-11-22T06:38:00.703Z,3.51
2022-11-22T06:42:59.838Z,3.32
2022-11-22T06:47:59.096Z,3.40
2022-11-22T06:52:57.797Z,3.23
2022-11-22T06:57:56.509Z,3.29
2022-11-22T07:02:55.268Z,3.27
2022-11-22T07:07:56.773Z,3.45
2022-11-22T07:12:59.654Z,3.31
2022-11-22T07:17:58.429Z,3.59
2022-11-22T07:22:57.130Z,3.62
2022-11-22T07:27:55.865Z,3.74
2022-11-22T07:32:54.673Z,3.49
2022-11-22T07:37:53.437Z,3.76
2022-11-22T07:42:58.143Z,3.64
2022-11-22T07:48:00.434Z,3.54
2022-11-22T07:52:59.935Z,3.67
2022-11-22T07:57:59.768Z,3.82
2022-11-22T08:02:59.418Z,3.85
2022-11-22T08:07:58.158Z,3.94
2022-11-22T08:13:00.423Z,3.85
2022-11-22T08:17:59.386Z,3.91
2022-11-22T08:22:58.168Z,4.01
2022-11-22T08:27:57.050Z,4.03
2022-11-22T08:32:55.876Z,4.34
2022-11-22T08:37:57.284Z,4.39
2022-11-22T08:42:56.631Z,4.33
2022-11-22T08:47:58.352Z,4.53
2022-11-22T08:52:57.238Z,4.78
2022-11-22T08:57:59.951Z,4.74
2022-11-22T09:02:58.797Z,4.84
2022-11-22T09:13:17.185Z,4.97
2022-11-22T09:18:16.077Z,4.85
2022-11-22T09:23:14.820Z,5.08
2022-11-22T09:28:13.532Z,5.19
2022-11-22T09:33:12.281Z,5.03
2022-11-22T09:38:11.121Z,4.94
2022-11-22T09:43:38.965Z,5.12
2022-11-22T09:48:49.670Z,5.43
2022-11-22T09:53:54.563Z,5.32
2022-11-22T09:59:00.664Z,5.36
2022-11-22T10:04:12.626Z,5.65
2022-11-22T10:09:45.374Z,5.82
2022-11-22T10:15:02.847Z,5.73
2022-11-22T10:20:20.928Z,5.96
2022-11-22T10:25:22.268Z,5.93
2022-11-22T10:30:21.756Z,6.11
2022-11-22T10:36:22.944Z,6.08
2022-11-22T10:41:45.848Z,6.02
2022-11-22T10:46:57.291Z,6.00
2022-11-22T10:51:59.331Z,5.74
2022-11-22T10:57:13.015Z,5.73
2022-11-22T11:02:43.600Z,5.90
2022-11-22T11:07:47.769Z,5.83
2022-11-22T11:12:53.249Z,5.57
2022-11-22T11:18:01.206Z,5.56
2022-11-22T11:23:14.120Z,5.61
2022-11-22T11:28:30.126Z,5.61
2022-11-22T11:33:30.650Z,5.63
2022-11-22T11:38:33.763Z,5.80
2022-11-22T11:43:32.504Z,5.85
2022-11-22T11:48:38.204Z,5.49
2022-11-22T11:53:37.765Z,5.48
2022-11-22T11:58:36.556Z,5.25
2022-11-22T12:03:35.463Z,5.32
2022-11-22T12:08:34.229Z,5.15
2022-11-22T12:19:14.451Z,5.25
2022-11-22T12:29:46.073Z,5.24
2022-11-22T12:34:53.240Z,5.17
2022-11-22T12:39:55.644Z,5.25
2022-11-22T12:45:02.137Z,5.37
2022-11-22T12:50:16.317Z,5.44
2022-11-22T12:55:22.883Z,5.57
2022-11-22T13:00:24.949Z,5.29
2022-11-22T13:05:31.329Z,5.38
2022-11-22T13:10:37.566Z,5.51
2022-11-22T13:15:40.238Z,5.54
2022-11-22T13:20:45.749Z,5.40
2022-11-22T13:26:10.350Z,5.20
2022-11-22T13:31:17.779Z,5.25
2022-11-22T13:36:31.759Z,5.42
2022-11-22T13:41:40.225Z,5.44
2022-11-22T13:46:57.107Z,5.52
2022-11-22T13:52:00.804Z,5.27
2022-11-22T13:57:05.413Z,5.33
2022-11-22T14:02:04.559Z,5.39
2022-11-22T14:07:21.243Z,5.40
2022-11-22T14:12:45.060Z,5.07
2022-11-22T14:18:00.737Z,5.23
2022-11-22T14:23:19.635Z,5.42
2022-11-22T14:28:36.919Z,5.20
2022-11-22T14:33:36.483Z,5.43
2022-11-22T14:38:41.302Z,5.19
2022-11-22T14:43:42.015Z,4.97
2022-11-22T14:48:53.145Z,5.10
2022-11-22T14:53:56.174Z,5.24
2022-11-22T14:59:01.385Z,5.14
2022-11-22T15:09:15.254Z,5.09
2022-11-22T15:09:52.870Z,4.90
2022-11-22T15:14:58.219Z,5.02
2022-11-22T15:58:47.875Z,4.73
2022-11-22T16:03:59.110Z,4.64
2022-11-22T16:09:01.619Z,4.49
2022-11-22T16:14:00.561Z,4.72
2022-11-22T16:19:22.141Z,4.74
2022-11-22T16:24:20.899Z,4.53
2022-11-22T16:29:32.509Z,4.81
2022-11-22T16:34:31.704Z,4.57
2022-11-22T16:39:31.435Z,4.55
2022-11-22T16:44:30.542Z,4.73
2022-11-22T16:49:31.950Z,4.58
2022-11-22T16:54:32.648Z,4.66
2022-11-22T16:59:31.638Z,4.64
2022-11-22T17:04:37.882Z,4.50
2022-11-22T17:09:39.613Z,4.63
2022-11-22T17:14:38.370Z,4.43
2022-11-22T17:19:52.611Z,4.46
2022-11-22T17:24:52.287Z,4.51
2022-11-22T17:29:51.410Z,4.57
2022-11-22T17:34:50.366Z,4.56
2022-11-22T17:39:52.237Z,4.29
2022-11-22T17:44:50.986Z,4.68
2022-11-22T17:49:49.772Z,4.53
2022-11-22T17:54:48.477Z,7.26
2022-11-22T17:59:47.208Z,7.24
2022-11-22T18:04:46.014Z,5.52
2022-11-22T18:09:44.989Z,5.14
2022-11-22T18:14:44.919Z,4.99
2022-11-22T18:19:43.826Z,4.67
2022-11-22T18:24:42.584Z,4.68
2022-11-22T18:29:42.853Z,4.95
2022-11-22T18:34:42.604Z,4.67
2022-11-22T18:39:41.383Z,4.28
2022-11-22T18:44:40.236Z,4.25
2022-11-22T18:49:39.080Z,4.48
2022-11-22T18:54:37.833Z,4.56
2022-11-22T18:59:36.743Z,4.65
2022-11-22T19:04:35.696Z,4.43
2022-11-22T19:09:34.392Z,4.38
2022-11-22T19:14:33.460Z,4.45
2022-11-22T19:19:32.766Z,4.57
2022-11-22T19:24:34.378Z,4.52
2022-11-22T19:29:35.329Z,4.51
2022-11-22T19:34:34.408Z,4.44
2022-11-22T19:39:33.304Z,4.32
2022-11-22T19:44:32.147Z,4.43
2022-11-22T19:49:31.209Z,4.45
2022-11-22T19:54:30.245Z,4.21
2022-11-22T19:59:30.370Z,4.26
2022-11-22T20:04:29.383Z,4.29
2022-11-22T20:09:28.304Z,4.25
2022-11-22T20:14:27.320Z,4.33
2022-11-22T20:19:31.154Z,4.43
2022-11-22T20:24:33.138Z,4.61
2022-11-22T20:29:32.554Z,4.47
2022-11-22T20:34:33.695Z,4.38
2022-11-22T20:39:35.572Z,4.45
2022-11-22T20:44:34.683Z,4.59
2022-11-22T20:49:33.471Z,4.30
2022-11-22T20:54:32.512Z,4.37
2022-11-22T20:59:31.413Z,4.26
2022-11-22T21:04:30.480Z,4.42
2022-11-22T21:09:29.571Z,4.35
2022-11-22T21:14:28.409Z,4.29
2022-11-22T21:19:27.307Z,4.32
2022-11-22T21:24:26.028Z,4.46
2022-11-22T21:29:24.853Z,4.20
2022-11-22T21:34:23.589Z,4.27
2022-11-22T21:39:22.369Z,4.29
2022-11-22T21:44:21.111Z,4.00
2022-11-22T21:49:19.872Z,4.15
2022-11-22T21:54:18.741Z,4.08
2022-11-22T21:59:17.733Z,4.25
2022-11-22T22:04:16.688Z,4.12
2022-11-22T22:09:15.400Z,4.14
2022-11-22T22:14:14.978Z,4.28
2022-11-22T22:19:14.931Z,4.26
2022-11-22T22:24:13.938Z,4.34
2022-11-22T22:29:12.883Z,4.34
2022-11-22T22:34:11.726Z,4.34
2022-11-22T22:39:12.253Z,4.27
2022-11-22T22:44:11.463Z,4.31
2022-11-22T22:49:10.297Z,4.46
2022-11-22T22:54:10.747Z,4.33
2022-11-22T22:59:09.531Z,4.37
2022-11-22T23:04:08.914Z,4.49
2022-11-22T23:09:09.900Z,4.27
2022-11-22T23:14:08.765Z,4.23
2022-11-22T23:19:08.118Z,4.24
2022-11-22T23:24:08.306Z,4.36
2022-11-22T23:29:07.184Z,4.40
2022-11-22T23:34:06.325Z,4.56
2022-11-22T23:39:05.300Z,4.56
2022-11-22T23:44:04.399Z,4.46
2022-11-22T23:49:04.589Z,4.34
2022-11-22T23:54:05.789Z,4.28
2022-11-22T23:59:05.852Z,3.89
